Time;durP1;ratioP1;P1;durP2;ratioP2;P2;SDS_P1;SDS_P2;PMS_P1;PMS_P2;Temp;Humidity;BMP_temperature;BMP_pressure;BME280_temperature;BME280_humidity;BME280_pressure;Samples;Min_cycle;Max_cycle;Signal;HPM_P1;HPM_P2
2023/05/17 00:02:13;;;;;;;6.70;6.03;;;;;;;12.29;79.53;98143.41;5054115;28;20118;-74
2023/05/17 00:04:38;;;;;;;7.35;6.47;;;;;;;12.29;79.63;98146.16;5053749;28;20036;-74
2023/05/17 00:07:04;;;;;;;6.63;5.97;;;;;;;12.30;79.08;98144.22;5053958;28;20027;-74
2023/05/17 00:09:29;;;;;;;6.90;6.22;;;;;;;12.30;79.16;98146.97;5053140;28;20389;-74
2023/05/17 00:11:55;;;;;;;6.53;5.90;;;;;;;12.32;79.40;98158.47;5052427;28;20094;-74
2023/05/17 00:14:20;;;;;;;7.68;6.07;;;;;;;12.33;79.07;98165.59;5053655;28;20436;-74
2023/05/17 00:16:45;;;;;;;6.53;5.93;;;;;;;12.34;78.94;98164.47;5053591;28;20063;-74
2023/05/17 00:19:11;;;;;;;7.38;6.50;;;;;;;12.35;79.28;98160.59;5053620;28;20112;-73
2023/05/17 00:21:36;;;;;;;8.60;7.65;;;;;;;12.36;79.46;98157.50;5053403;28;20063;-74
2023/05/17 00:24:02;;;;;;;6.70;6.10;;;;;;;12.38;79.35;98159.13;5053642;28;20021;-74
2023/05/17 00:26:28;;;;;;;7.22;6.53;;;;;;;12.38;79.81;98151.72;5053751;28;20025;-74
2023/05/17 00:28:53;;;;;;;7.15;6.40;;;;;;;12.36;79.57;98152.00;5053596;28;20044;-73
2023/05/17 00:31:18;;;;;;;7.30;6.57;;;;;;;12.32;79.37;98140.03;5053939;28;20380;-74
2023/05/17 00:33:45;;;;;;;6.88;6.18;;;;;;;12.30;80.14;98142.28;5053803;28;20025;-74
2023/05/17 00:36:10;;;;;;;7.40;6.53;;;;;;;12.26;79.30;98141.28;5053603;28;20017;-74
2023/05/17 00:38:36;;;;;;;7.70;6.88;;;;;;;12.27;79.35;98142.09;5053550;28;20037;-73
2023/05/17 00:41:01;;;;;;;7.47;6.40;;;;;;;12.28;80.04;98147.28;5053496;28;20160;-73
2023/05/17 00:43:27;;;;;;;7.32;6.57;;;;;;;12.29;79.40;98145.34;5053550;28;20684;-73
2023/05/17 00:45:52;;;;;;;6.97;6.25;;;;;;;12.29;79.97;98161.84;5053470;28;20036;-73
2023/05/17 00:48:19;;;;;;;7.85;6.88;;;;;;;12.23;79.79;98169.41;5053419;28;20033;-73
2023/05/17 00:50:46;;;;;;;7.05;6.40;;;;;;;12.23;80.21;98168.59;5053342;28;20025;-74
2023/05/17 00:53:15;;;;;;;7.13;6.43;;;;;;;12.21;79.88;98166.19;5053338;28;20047;-73
2023/05/17 00:55:44;;;;;;;7.32;6.63;;;;;;;12.21;79.77;98160.69;5053330;28;20032;-72
2023/05/17 00:58:14;;;;;;;7.30;6.60;;;;;;;12.18;80.28;98153.84;5053528;28;20078;-74
2023/05/17 01:00:40;;;;;;;7.53;6.38;;;;;;;12.19;79.88;98155.47;5053134;28;20075;-74
2023/05/17 01:03:05;;;;;;;7.35;6.68;;;;;;;12.18;79.88;98162.09;5053129;28;20116;-74
2023/05/17 01:05:31;;;;;;;7.55;6.80;;;;;;;12.18;80.25;98162.09;5052970;28;20155;-73
2023/05/17 01:07:57;;;;;;;7.57;6.60;;;;;;;12.18;79.38;98159.34;5053102;28;20024;-73
2023/05/17 01:10:35;;;;;;;7.43;6.70;;;;;;;12.19;79.96;98166.47;5052926;28;20025;-74
2023/05/17 01:13:31;;;;;;;7.25;6.55;;;;;;;12.16;80.14;98169.84;5053004;28;20079;-73
2023/05/17 01:16:09;;;;;;;7.85;6.78;;;;;;;12.18;80.20;98175.84;5053283;28;20527;-74
2023/05/17 01:18:43;;;;;;;8.37;6.83;;;;;;;12.18;79.81;98177.81;5052982;28;20021;-73
2023/05/17 01:21:36;;;;;;;7.03;6.30;;;;;;;12.16;80.10;98172.59;5052890;28;20268;-73
2023/05/17 01:24:25;;;;;;;7.30;6.55;;;;;;;12.14;80.69;98163.84;5052950;28;20108;-73
2023/05/17 01:26:52;;;;;;;6.60;5.90;;;;;;;12.13;80.01;98153.19;5053569;28;20430;-73
2023/05/17 01:29:24;;;;;;;7.57;6.53;;;;;;;12.09;80.37;98141.19;5053692;28;20031;-73
2023/05/17 01:31:50;;;;;;;6.63;6.03;;;;;;;12.08;80.36;98139.56;5052667;28;20021;-73
2023/05/17 01:34:24;;;;;;;6.80;6.10;;;;;;;12.03;80.80;98140.50;5052780;28;20120;-73
2023/05/17 01:36:49;;;;;;;7.00;6.30;;;;;;;11.96;80.89;98135.41;5053485;28;20029;-74
2023/05/17 01:39:15;;;;;;;6.93;6.28;;;;;;;11.94;80.56;98143.16;5053054;28;20455;-73
2023/05/17 01:41:42;;;;;;;6.85;6.15;;;;;;;11.93;81.85;98149.00;5052384;28;20044;-73
2023/05/17 01:44:31;;;;;;;6.50;5.90;;;;;;;11.88;81.89;98147.16;5052370;28;20465;-74
2023/05/17 01:47:18;;;;;;;7.00;6.20;;;;;;;11.82;81.56;98151.19;5052489;28;20029;-73
2023/05/17 01:49:50;;;;;;;8.25;6.60;;;;;;;11.75;82.23;98166.16;5052297;28;20461;-73
2023/05/17 01:52:30;;;;;;;8.20;6.70;;;;;;;11.71;82.47;98173.41;5052352;28;20111;-74
2023/05/17 01:55:25;;;;;;;8.27;6.82;;;;;;;11.66;81.99;98183.66;5052326;28;20051;-74
2023/05/17 01:57:55;;;;;;;7.13;6.30;;;;;;;11.61;81.70;98187.34;5052536;28;20043;-74
2023/05/17 02:00:22;;;;;;;7.18;5.90;;;;;;;11.57;81.99;98186.34;5052937;28;20196;-73
2023/05/17 02:02:48;;;;;;;6.95;5.40;;;;;;;11.52;82.77;98184.53;5053043;28;20112;-73
2023/05/17 02:05:13;;;;;;;5.25;4.70;;;;;;;11.49;83.14;98173.34;5053150;28;20445;-74
2023/05/17 02:07:39;;;;;;;5.10;4.60;;;;;;;11.43;82.82;98173.47;5053358;28;20025;-73
2023/05/17 02:10:05;;;;;;;4.72;4.07;;;;;;;11.39;84.10;98177.16;5052833;28;20366;-73
2023/05/17 02:12:31;;;;;;;4.43;3.97;;;;;;;11.29;83.55;98178.97;5052927;28;20359;-73
2023/05/17 02:14:56;;;;;;;4.40;3.42;;;;;;;11.25;84.23;98179.91;5052804;28;20021;-73
2023/05/17 02:17:21;;;;;;;4.68;4.20;;;;;;;11.21;85.03;98178.91;5051996;28;20407;-73
2023/05/17 02:19:47;;;;;;;4.10;3.25;;;;;;;11.16;84.68;98180.63;5051959;28;20434;-73
2023/05/17 02:22:12;;;;;;;4.82;3.90;;;;;;;11.20;83.88;98191.00;5054636;28;20021;-73
2023/05/17 02:24:37;;;;;;;3.33;3.03;;;;;;;11.20;85.03;98178.09;5056493;28;20120;-73
2023/05/17 02:27:03;;;;;;;4.38;3.97;;;;;;;11.19;84.80;98183.88;5056595;28;20100;-73
2023/05/17 02:29:28;;;;;;;4.30;3.90;;;;;;;11.21;85.07;98184.41;5057019;28;20499;-73
2023/05/17 02:31:54;;;;;;;4.20;3.50;;;;;;;11.21;84.97;98187.13;5056233;28;20059;-73
2023/05/17 02:34:19;;;;;;;7.15;3.65;;;;;;;11.18;84.60;98188.59;5056207;28;20056;-73
2023/05/17 02:36:45;;;;;;;3.55;2.95;;;;;;;11.16;85.17;98180.63;5054724;28;20079;-73
2023/05/17 02:39:11;;;;;;;3.70;3.22;;;;;;;11.09;84.64;98195.91;5056193;28;20037;-73
2023/05/17 02:41:36;;;;;;;4.10;3.63;;;;;;;11.05;85.50;98189.41;5055791;28;20033;-73
2023/05/17 02:44:01;;;;;;;3.53;3.00;;;;;;;10.96;86.15;98198.34;5056137;28;20033;-73
2023/05/17 02:46:27;;;;;;;3.72;3.33;;;;;;;10.86;85.04;98199.38;5055666;28;20020;-74
2023/05/17 02:48:52;;;;;;;4.70;3.38;;;;;;;10.79;85.50;98190.72;5056502;28;20029;-74
2023/05/17 02:51:17;;;;;;;4.53;3.47;;;;;;;10.71;84.92;98189.50;5056659;28;20488;-73
2023/05/17 02:53:43;;;;;;;4.25;3.25;;;;;;;10.64;85.48;98191.81;5055410;28;20060;-72
2023/05/17 02:56:08;;;;;;;3.63;3.20;;;;;;;10.56;86.87;98198.84;5054152;28;20039;-73
2023/05/17 02:58:33;;;;;;;4.45;3.47;;;;;;;10.50;85.92;98193.72;5056423;28;20053;-74
2023/05/17 03:00:59;;;;;;;4.72;3.55;;;;;;;10.47;86.98;98192.41;5056468;28;20029;-73
2023/05/17 03:03:24;;;;;;;5.53;3.42;;;;;;;10.42;85.96;98195.25;5056269;28;20033;-73
2023/05/17 03:05:50;;;;;;;5.10;3.58;;;;;;;10.38;85.50;98197.75;5055942;28;20064;-73
2023/05/17 03:08:15;;;;;;;4.60;3.97;;;;;;;10.35;86.73;98194.78;5056358;28;20497;-74
2023/05/17 03:10:40;;;;;;;4.95;3.15;;;;;;;10.31;86.70;98202.00;5056466;28;20051;-73
2023/05/17 03:13:06;;;;;;;5.85;4.38;;;;;;;10.27;86.73;98199.84;5054879;28;20035;-74
2023/05/17 03:15:31;;;;;;;5.47;4.43;;;;;;;10.23;86.76;98207.03;5055227;28;20100;-73
2023/05/17 03:17:57;;;;;;;7.47;4.50;;;;;;;10.21;86.61;98209.25;5055988;28;20027;-73
2023/05/17 03:20:22;;;;;;;5.00;4.20;;;;;;;10.20;86.31;98221.34;5056096;28;20024;-74
2023/05/17 03:22:48;;;;;;;10.52;7.32;;;;;;;10.20;86.25;98226.03;5055969;28;20120;-74
2023/05/17 03:25:13;;;;;;;6.85;4.97;;;;;;;10.20;87.22;98228.75;5056227;28;20032;-73
2023/05/17 03:27:39;;;;;;;7.68;5.40;;;;;;;10.13;86.50;98229.16;5055922;28;20029;-74
2023/05/17 03:30:05;;;;;;;7.57;5.60;;;;;;;10.09;86.96;98233.59;5055781;28;20068;-73
2023/05/17 03:32:31;;;;;;;9.27;6.15;;;;;;;10.08;87.57;98240.19;5055777;28;20124;-73
2023/05/17 03:34:56;;;;;;;14.43;6.95;;;;;;;10.07;87.27;98233.88;5055810;28;20029;-74
2023/05/17 03:37:21;;;;;;;13.75;7.38;;;;;;;10.02;86.75;98223.00;5055851;28;20049;-73
2023/05/17 03:39:47;;;;;;;10.45;6.57;;;;;;;10.03;86.37;98234.78;5055543;28;20072;-74
2023/05/17 03:42:12;;;;;;;7.13;5.63;;;;;;;10.02;86.48;98236.69;5054256;28;20036;-74
2023/05/17 03:44:39;;;;;;;7.80;5.22;;;;;;;10.03;86.38;98241.06;5054416;28;20040;-74
2023/05/17 03:47:05;;;;;;;6.93;5.18;;;;;;;10.04;86.70;98245.44;5055703;28;20493;-73
2023/05/17 03:49:30;;;;;;;6.43;4.95;;;;;;;10.05;86.98;98246.25;5055366;28;20104;-73
2023/05/17 03:51:55;;;;;;;7.50;5.43;;;;;;;10.02;86.35;98250.41;5055430;28;20025;-74
2023/05/17 03:54:21;;;;;;;6.40;5.43;;;;;;;10.04;86.95;98255.59;5055721;28;20031;-74
2023/05/17 03:56:47;;;;;;;10.00;6.57;;;;;;;9.97;86.53;98255.97;5055338;28;20378;-73
2023/05/17 03:59:13;;;;;;;7.35;5.70;;;;;;;9.97;87.03;98256.78;5055511;28;20065;-73
2023/05/17 04:01:39;;;;;;;9.20;5.72;;;;;;;9.92;86.97;98262.34;5055266;28;20561;-74
2023/05/17 04:04:04;;;;;;;7.60;5.82;;;;;;;9.87;86.72;98265.16;5055287;28;20025;-73
2023/05/17 04:06:31;;;;;;;7.45;5.35;;;;;;;9.83;87.38;98264.09;5053898;28;20054;-74
2023/05/17 04:08:58;;;;;;;7.78;5.45;;;;;;;9.79;87.15;98269.38;5055155;28;20048;-73
2023/05/17 04:11:25;;;;;;;7.82;5.97;;;;;;;9.77;86.31;98271.59;5055038;28;20021;-73
2023/05/17 04:13:51;;;;;;;7.25;5.10;;;;;;;9.75;86.80;98264.78;5055058;28;20445;-73
2023/05/17 04:16:17;;;;;;;7.07;5.10;;;;;;;9.70;86.66;98282.09;5054937;28;20108;-73
2023/05/17 04:18:44;;;;;;;7.25;5.38;;;;;;;9.69;87.33;98291.41;5055107;28;20040;-74
2023/05/17 04:21:09;;;;;;;7.35;4.93;;;;;;;9.73;87.52;98291.66;5055124;28;20017;-74
2023/05/17 04:23:35;;;;;;;5.85;5.10;;;;;;;9.68;87.22;98307.03;5054997;28;20384;-73
2023/05/17 04:26:01;;;;;;;5.50;4.50;;;;;;;9.64;86.25;98299.69;5054919;28;20018;-74
2023/05/17 04:28:27;;;;;;;6.20;4.90;;;;;;;9.57;86.20;98311.00;5054890;28;20052;-74
2023/05/17 04:30:53;;;;;;;5.88;4.53;;;;;;;9.53;86.87;98305.31;5054861;28;20049;-74
2023/05/17 04:33:18;;;;;;;5.68;4.80;;;;;;;9.50;86.65;98313.28;5054516;28;20044;-73
2023/05/17 04:35:44;;;;;;;8.65;5.47;;;;;;;9.44;86.46;98312.56;5053803;28;20421;-73
2023/05/17 04:38:11;;;;;;;7.68;5.40;;;;;;;9.43;86.62;98324.59;5053418;28;20037;-73
2023/05/17 04:40:37;;;;;;;6.18;5.10;;;;;;;9.42;86.73;98322.16;5054195;28;20056;-74
2023/05/17 04:43:02;;;;;;;6.82;4.63;;;;;;;9.42;87.16;98331.19;5054471;28;20060;-73
2023/05/17 04:45:28;;;;;;;6.03;4.53;;;;;;;9.39;86.87;98334.50;5053896;28;20021;-74
2023/05/17 04:47:53;;;;;;;7.10;4.80;;;;;;;9.32;86.38;98328.56;5054732;28;20052;-74
2023/05/17 04:50:19;;;;;;;6.85;5.30;;;;;;;9.28;86.75;98328.34;5054402;28;20049;-73
2023/05/17 04:52:47;;;;;;;5.68;4.95;;;;;;;9.26;87.04;98335.19;5054287;28;20025;-73
2023/05/17 04:55:12;;;;;;;5.15;4.60;;;;;;;9.22;86.95;98333.03;5054263;28;20021;-73
2023/05/17 04:57:38;;;;;;;6.45;4.70;;;;;;;9.20;86.88;98346.19;5054292;28;20070;-73
2023/05/17 05:00:11;;;;;;;6.00;4.63;;;;;;;9.15;86.80;98348.19;5054254;28;20021;-73
2023/05/17 05:02:37;;;;;;;7.13;4.75;;;;;;;9.11;87.18;98349.84;5054216;28;20039;-73
2023/05/17 05:05:06;;;;;;;4.90;4.28;;;;;;;9.10;87.56;98351.78;5054407;28;20029;-73
2023/05/17 05:07:31;;;;;;;5.07;4.43;;;;;;;9.07;87.75;98341.41;5054060;28;20108;-73
2023/05/17 05:09:57;;;;;;;5.63;4.20;;;;;;;9.05;87.31;98349.09;5054284;28;20103;-73
2023/05/17 05:12:23;;;;;;;6.45;5.05;;;;;;;9.03;87.38;98346.63;5054006;28;20056;-73
2023/05/17 05:14:48;;;;;;;5.88;4.45;;;;;;;9.01;87.32;98339.84;5053903;28;20029;-74
2023/05/17 05:17:14;;;;;;;5.25;4.20;;;;;;;9.01;87.72;98342.56;5052882;28;20021;-74
2023/05/17 05:19:39;;;;;;;6.43;4.88;;;;;;;8.98;88.60;98348.63;5053767;28;20116;-73
2023/05/17 05:22:04;;;;;;;6.72;4.47;;;;;;;8.97;87.88;98342.31;5053639;28;20071;-74
2023/05/17 05:24:30;;;;;;;8.05;5.03;;;;;;;8.98;88.13;98340.41;5053707;28;20083;-73
2023/05/17 05:26:55;;;;;;;5.65;4.97;;;;;;;8.99;88.02;98348.31;5053493;28;20028;-73
2023/05/17 05:29:21;;;;;;;5.43;4.47;;;;;;;8.99;88.13;98353.00;5033363;28;20033;-73
2023/05/17 05:31:46;;;;;;;5.90;4.57;;;;;;;8.98;87.91;98360.34;5033699;28;20116;-74
2023/05/17 05:34:11;;;;;;;6.57;4.82;;;;;;;8.97;88.39;98366.94;5033615;28;20071;-74
2023/05/17 05:36:37;;;;;;;5.97;5.03;;;;;;;8.97;88.20;98371.59;5033675;28;20109;-74
2023/05/17 05:39:02;;;;;;;6.13;4.75;;;;;;;8.93;88.17;98374.13;5033271;28;20068;-74
2023/05/17 05:41:28;;;;;;;7.22;4.55;;;;;;;8.94;88.70;98373.00;5033433;28;20025;-73
2023/05/17 05:43:53;;;;;;;6.32;4.70;;;;;;;8.91;88.26;98370.84;5033504;28;20026;-74
2023/05/17 05:46:19;;;;;;;7.82;5.45;;;;;;;8.91;88.25;98390.00;5033465;28;20033;-73
2023/05/17 05:48:44;;;;;;;6.80;4.35;;;;;;;8.88;88.46;98376.88;5033416;28;20029;-73
2023/05/17 05:51:09;;;;;;;8.75;5.60;;;;;;;8.85;88.40;98389.19;5033604;28;20029;-74
2023/05/17 05:53:35;;;;;;;6.03;4.90;;;;;;;8.81;88.45;98393.59;5033331;28;20108;-74
2023/05/17 05:56:01;;;;;;;7.07;4.75;;;;;;;8.79;88.50;98395.81;5032443;28;20036;-73
2023/05/17 05:58:28;;;;;;;8.10;5.65;;;;;;;8.72;87.65;98390.69;5032969;28;20049;-73
2023/05/17 06:00:54;;;;;;;7.90;4.85;;;;;;;8.73;87.73;98391.50;5039407;28;20122;-73
2023/05/17 06:03:19;;;;;;;7.07;4.68;;;;;;;8.72;88.09;98396.16;5053101;28;20127;-73
2023/05/17 06:05:44;;;;;;;7.85;4.90;;;;;;;8.73;87.77;98414.19;5053211;28;20029;-74
2023/05/17 06:08:10;;;;;;;8.43;5.97;;;;;;;8.72;87.60;98409.03;5053054;28;20392;-73
2023/05/17 06:10:35;;;;;;;8.40;5.43;;;;;;;8.75;88.75;98422.91;5053306;28;20087;-73
2023/05/17 06:13:01;;;;;;;6.93;5.22;;;;;;;8.71;88.12;98421.06;5052965;28;20060;-74
2023/05/17 06:15:27;;;;;;;7.88;5.90;;;;;;;8.69;87.35;98432.25;5053075;28;20439;-73
2023/05/17 06:17:52;;;;;;;7.72;5.47;;;;;;;8.70;88.24;98439.38;5053203;28;20112;-74
2023/05/17 06:20:17;;;;;;;6.82;4.97;;;;;;;8.71;87.92;98451.94;5052852;28;20530;-73
2023/05/17 06:22:43;;;;;;;8.48;5.05;;;;;;;8.69;88.24;98448.66;5053162;28;20053;-73
2023/05/17 06:25:10;;;;;;;6.85;5.20;;;;;;;8.67;88.14;98456.34;5053172;28;20058;-73
2023/05/17 06:27:35;;;;;;;9.65;5.93;;;;;;;8.61;87.93;98449.25;5053004;28;20025;-73
2023/05/17 06:30:03;;;;;;;8.13;4.93;;;;;;;8.58;87.30;98447.94;5050467;28;20473;-71
2023/05/17 06:32:29;;;;;;;7.47;5.53;;;;;;;8.58;87.64;98453.41;5052797;28;20111;-73
2023/05/17 06:34:55;;;;;;;6.85;5.50;;;;;;;8.59;88.60;98456.94;5050718;28;20104;-73
2023/05/17 06:37:20;;;;;;;6.68;5.03;;;;;;;8.58;88.25;98453.41;5050692;28;20515;-73
2023/05/17 06:39:46;;;;;;;9.45;5.75;;;;;;;8.58;88.67;98458.84;5050745;28;20087;-73
2023/05/17 06:42:11;;;;;;;6.88;5.10;;;;;;;8.55;87.81;98453.16;5049400;28;20025;-73
2023/05/17 06:44:36;;;;;;;7.97;5.90;;;;;;;8.57;88.03;98461.84;5051333;28;20032;-73
2023/05/17 06:47:02;;;;;;;7.65;5.97;;;;;;;8.56;87.88;98463.00;5050139;28;20175;-73
2023/05/17 06:49:28;;;;;;;7.28;5.35;;;;;;;8.61;88.58;98465.66;5051530;28;20382;-73
2023/05/17 06:51:54;;;;;;;6.85;5.25;;;;;;;8.65;88.59;98469.47;5051860;28;20052;-74
2023/05/17 06:54:19;;;;;;;6.57;5.30;;;;;;;8.69;88.31;98465.06;5051773;28;20025;-74
2023/05/17 06:56:45;;;;;;;7.50;5.70;;;;;;;8.73;88.07;98468.06;5052708;28;20036;-73
2023/05/17 06:59:10;;;;;;;6.28;5.35;;;;;;;8.77;88.69;98469.94;5050860;28;20096;-73
2023/05/17 07:01:39;;;;;;;9.07;6.10;;;;;;;8.77;88.04;98464.47;5051225;28;20493;-72
2023/05/17 07:04:04;;;;;;;8.18;5.60;;;;;;;8.81;89.03;98470.19;5048912;28;20366;-72
2023/05/17 07:06:30;;;;;;;8.48;5.50;;;;;;;8.82;88.78;98474.53;5047746;28;20108;-73
2023/05/17 07:08:55;;;;;;;6.93;5.10;;;;;;;8.79;88.34;98477.84;5061713;28;20052;-72
2023/05/17 07:11:21;;;;;;;7.50;5.03;;;;;;;8.83;88.57;98478.13;5056678;28;20065;-74
2023/05/17 07:13:46;;;;;;;6.32;5.30;;;;;;;8.87;88.80;98490.13;5048893;28;20029;-73
2023/05/17 07:16:11;;;;;;;6.55;4.90;;;;;;;8.89;88.11;98486.00;5039098;28;20060;-73
2023/05/17 07:18:37;;;;;;;8.07;5.50;;;;;;;8.88;88.31;98508.97;5035315;28;20489;-73
2023/05/17 07:21:02;;;;;;;7.53;5.05;;;;;;;8.86;88.84;98505.69;5049652;28;20455;-73
2023/05/17 07:23:28;;;;;;;6.93;5.88;;;;;;;8.85;89.18;98506.81;5064852;28;20075;-72
2023/05/17 07:25:53;;;;;;;8.60;6.15;;;;;;;8.87;88.20;98509.28;5043573;28;20035;-71
2023/05/17 07:28:18;;;;;;;9.10;6.10;;;;;;;8.86;88.40;98507.63;5054422;28;20035;-73
2023/05/17 07:30:44;;;;;;;10.82;6.50;;;;;;;8.87;88.39;98507.34;5052591;28;20385;-73
2023/05/17 07:33:09;;;;;;;8.35;6.40;;;;;;;8.90;89.01;98506.78;5053353;28;20028;-72
2023/05/17 07:35:35;;;;;;;8.63;6.32;;;;;;;8.92;88.92;98501.03;5048947;28;20278;-74
2023/05/17 07:38:00;;;;;;;9.23;6.30;;;;;;;8.95;89.05;98511.41;5051023;28;20044;-72
2023/05/17 07:40:25;;;;;;;10.95;6.18;;;;;;;8.93;88.41;98510.88;5052405;28;20733;-72
2023/05/17 07:42:51;;;;;;;9.20;6.38;;;;;;;8.93;89.08;98511.69;5053287;28;20056;-72
2023/05/17 07:45:17;;;;;;;9.65;5.93;;;;;;;8.93;89.08;98517.16;5052224;28;20025;-74
2023/05/17 07:47:42;;;;;;;8.00;6.10;;;;;;;8.90;88.58;98525.91;5053627;28;20028;-72
2023/05/17 07:50:08;;;;;;;9.10;6.32;;;;;;;8.89;89.47;98524.28;5049568;28;20057;-73
2023/05/17 07:52:34;;;;;;;9.60;6.40;;;;;;;8.92;88.63;98525.66;5051390;28;20040;-74
2023/05/17 07:54:59;;;;;;;9.43;6.07;;;;;;;8.96;88.98;98534.94;5053225;28;20067;-73
2023/05/17 07:57:26;;;;;;;8.57;6.05;;;;;;;8.96;88.90;98534.09;5050651;28;20033;-73
2023/05/17 07:59:51;;;;;;;7.63;6.00;;;;;;;8.99;88.45;98536.25;5048635;28;20025;-71
2023/05/17 08:02:16;;;;;;;8.70;5.78;;;;;;;9.03;88.93;98537.34;5053012;28;20066;-71
2023/05/17 08:04:42;;;;;;;8.10;5.65;;;;;;;9.07;89.05;98549.34;5054386;28;20397;-73
2023/05/17 08:07:07;;;;;;;8.52;6.03;;;;;;;9.05;88.76;98541.41;5053831;28;20028;-73
2023/05/17 08:09:32;;;;;;;6.85;5.20;;;;;;;9.07;88.50;98557.56;5050458;28;20487;-71
2023/05/17 08:11:58;;;;;;;7.90;5.60;;;;;;;9.09;88.73;98541.66;5054456;28;20048;-73
2023/05/17 08:14:24;;;;;;;7.13;5.78;;;;;;;9.13;88.02;98550.94;5047101;28;20514;-73
2023/05/17 08:16:50;;;;;;;8.02;6.38;;;;;;;9.19;88.48;98546.25;5052020;28;20025;-73
2023/05/17 08:19:17;;;;;;;6.10;5.43;;;;;;;9.22;88.45;98551.97;5052313;28;20036;-73
2023/05/17 08:21:42;;;;;;;7.15;5.47;;;;;;;9.27;88.88;98553.03;5051176;28;20119;-75
2023/05/17 08:24:08;;;;;;;8.65;5.90;;;;;;;9.24;88.39;98562.63;5050211;28;20064;-74
2023/05/17 08:26:34;;;;;;;7.68;5.60;;;;;;;9.27;87.80;98559.34;5051105;28;20040;-74
2023/05/17 08:29:01;;;;;;;7.43;5.95;;;;;;;9.27;88.56;98555.75;5053015;28;21553;-74
2023/05/17 08:31:27;;;;;;;9.43;6.20;;;;;;;9.27;88.22;98553.03;5051493;28;20028;-74
2023/05/17 08:33:52;;;;;;;8.82;6.80;;;;;;;9.32;88.07;98559.28;5052723;28;20023;-74
2023/05/17 08:36:18;;;;;;;8.52;6.20;;;;;;;9.35;88.66;98560.63;5052817;28;20025;-75
2023/05/17 08:38:43;;;;;;;8.20;5.95;;;;;;;9.41;88.78;98558.66;5052019;28;20037;-73
2023/05/17 08:41:08;;;;;;;8.50;6.78;;;;;;;9.46;88.17;98561.34;5053240;28;20017;-74
2023/05/17 08:43:34;;;;;;;8.07;6.15;;;;;;;9.47;87.80;98557.53;5051777;28;20036;-73
2023/05/17 08:46:02;;;;;;;9.20;6.28;;;;;;;9.52;88.25;98560.22;5052893;28;20033;-74
2023/05/17 08:48:29;;;;;;;7.60;6.05;;;;;;;9.51;88.29;98559.41;5051843;28;20457;-74
2023/05/17 08:50:56;;;;;;;8.07;6.30;;;;;;;9.56;88.54;98565.97;5051554;28;20021;-73
2023/05/17 08:53:23;;;;;;;5.78;4.70;;;;;;;9.60;88.25;98564.25;5050413;28;20041;-73
2023/05/17 08:55:50;;;;;;;5.68;5.03;;;;;;;9.60;88.01;98561.50;5050950;28;20084;-73
2023/05/17 08:58:20;;;;;;;7.03;5.22;;;;;;;9.63;87.90;98561.78;5050928;28;20028;-73
2023/05/17 09:00:46;;;;;;;;;;;;;;;9.58;87.28;98558.28;5053678;28;20025;-72
2023/05/17 09:03:16;;;;;;;6.43;4.32;;;;;;;9.53;87.95;98562.69;5050488;28;19925;-71
2023/05/17 09:05:43;;;;;;;5.22;4.00;;;;;;;9.46;87.68;98564.94;5053437;28;20048;-71
2023/05/17 09:08:12;;;;;;;4.95;4.25;;;;;;;9.39;88.07;98567.16;5051896;28;20031;-72
2023/05/17 09:10:41;;;;;;;4.47;3.60;;;;;;;9.35;87.54;98574.31;5051899;28;20035;-73
2023/05/17 09:13:09;;;;;;;4.57;3.70;;;;;;;9.31;87.62;98576.00;5051036;28;20389;-73
2023/05/17 09:15:36;;;;;;;5.45;4.22;;;;;;;9.23;87.74;98591.91;5050133;28;20025;-74
2023/05/17 09:18:02;;;;;;;5.40;3.85;;;;;;;9.19;87.66;98587.28;5046588;28;20107;-73
2023/05/17 09:20:35;;;;;;;8.27;4.65;;;;;;;9.18;87.41;98588.41;5051503;28;20027;-74
2023/05/17 09:23:03;;;;;;;7.30;5.00;;;;;;;9.11;87.47;98596.09;5051933;28;20374;-71
2023/05/17 09:25:30;;;;;;;11.88;7.38;;;;;;;9.15;87.91;98600.75;5052469;28;20025;-71
2023/05/17 09:28:03;;;;;;;6.60;5.18;;;;;;;9.21;88.31;98596.84;5047308;28;20053;-72
2023/05/17 09:30:30;;;;;;;5.30;4.60;;;;;;;9.20;87.19;98591.66;5055512;28;20056;-75
2023/05/17 09:32:56;;;;;;;7.30;4.50;;;;;;;9.27;86.77;98588.59;5054851;28;20521;-77
2023/05/17 09:35:30;;;;;;;5.25;4.20;;;;;;;9.24;87.21;98596.28;5049343;28;20021;-75
2023/05/17 09:38:05;;;;;;;6.15;4.68;;;;;;;9.27;86.69;98599.53;5051262;28;20031;-74
2023/05/17 09:40:30;;;;;;;7.07;5.10;;;;;;;9.29;87.23;98600.09;5051191;28;20060;-76
2023/05/17 09:42:57;;;;;;;6.60;4.35;;;;;;;9.32;87.33;98607.72;5054283;28;20106;-75
2023/05/17 09:45:23;;;;;;;7.00;5.10;;;;;;;9.30;87.21;98601.72;5048488;28;20488;-72
2023/05/17 09:47:49;;;;;;;10.38;6.05;;;;;;;9.32;86.72;98605.00;5052149;28;20033;-73
2023/05/17 09:50:20;;;;;;;8.32;5.07;;;;;;;9.35;87.26;98615.38;5052005;28;20431;-81
2023/05/17 09:52:46;;;;;;;6.85;5.13;;;;;;;9.32;87.43;98616.78;5048706;28;20028;-82
2023/05/17 09:55:11;;;;;;;7.63;5.75;;;;;;;9.27;86.39;98616.81;5052684;28;20491;-80
2023/05/17 09:57:38;;;;;;;7.57;5.93;;;;;;;9.27;86.85;98621.44;5052112;28;20045;-80
2023/05/17 10:00:10;;;;;;;9.13;5.40;;;;;;;9.24;86.15;98623.66;5047333;28;20033;-80
2023/05/17 10:02:36;;;;;;;7.75;4.80;;;;;;;9.23;87.25;98622.00;5051750;28;20183;-82
2023/05/17 10:05:04;;;;;;;6.80;4.40;;;;;;;9.21;87.09;98624.22;5046612;28;20025;-81
2023/05/17 10:07:30;;;;;;;7.80;4.53;;;;;;;9.22;86.49;98625.84;5057871;28;20043;-82
2023/05/17 10:09:57;;;;;;;6.78;4.57;;;;;;;9.28;86.96;98625.81;5052472;28;20027;-81
2023/05/17 10:12:26;;;;;;;5.53;4.25;;;;;;;9.29;86.46;98625.56;5052780;28;20431;-83
2023/05/17 10:14:54;;;;;;;10.00;5.00;;;;;;;9.28;86.03;98632.13;5048183;28;20044;-85
2023/05/17 10:17:20;;;;;;;7.72;4.50;;;;;;;9.30;86.18;98642.78;5053306;28;20310;-81
2023/05/17 10:19:46;;;;;;;7.32;4.32;;;;;;;9.29;86.41;98650.19;5051001;28;20052;-83
2023/05/17 10:22:12;;;;;;;8.18;4.50;;;;;;;9.28;86.22;98648.53;5052949;28;20024;-82
2023/05/17 10:24:38;;;;;;;6.55;4.55;;;;;;;9.25;85.57;98646.38;5050194;28;20081;-85
2023/05/17 10:27:06;;;;;;;7.28;4.70;;;;;;;9.30;85.74;98648.25;5050513;28;20032;-81
2023/05/17 10:29:35;;;;;;;7.82;4.45;;;;;;;9.35;85.41;98656.44;5046397;28;20033;-85
2023/05/17 10:32:09;;;;;;;8.73;4.82;;;;;;;9.32;85.42;98657.00;5051521;28;20036;-83
2023/05/17 10:34:36;;;;;;;8.13;4.60;;;;;;;9.31;85.14;98649.88;5047931;28;20393;-85
2023/05/17 10:37:03;;;;;;;6.18;4.18;;;;;;;9.26;85.22;98660.84;5049142;28;20473;-81
2023/05/17 10:39:28;;;;;;;8.05;4.43;;;;;;;9.24;85.50;98663.88;5051212;28;20060;-81
2023/05/17 10:41:56;;;;;;;7.32;3.72;;;;;;;9.23;84.76;98657.59;5053552;28;20037;-82
2023/05/17 10:44:22;;;;;;;7.07;4.05;;;;;;;9.21;83.73;98664.47;5056187;28;20163;-83
2023/05/17 10:46:56;;;;;;;7.43;3.95;;;;;;;9.16;84.62;98667.22;5054753;28;20112;-82
2023/05/17 10:49:32;;;;;;;9.88;4.22;;;;;;;9.11;85.04;98665.34;5056247;28;20147;-81
2023/05/17 10:52:18;;;;;;;5.18;3.28;;;;;;;9.05;84.63;98667.25;5056086;28;20028;-85
2023/05/17 10:54:48;;;;;;;5.32;3.08;;;;;;;9.04;84.50;98662.88;5053528;28;20116;-85
2023/05/17 10:57:31;;;;;;;5.22;3.92;;;;;;;9.01;85.22;98657.97;5055153;28;20041;-79
2023/05/17 10:59:58;;;;;;;8.27;3.53;;;;;;;8.99;84.34;98662.91;5056689;28;20056;-83
2023/05/17 11:02:25;;;;;;;7.07;3.80;;;;;;;8.99;84.72;98673.03;5058850;28;20066;-82
2023/05/17 11:04:52;;;;;;;6.13;3.70;;;;;;;9.00;84.72;98682.88;5055997;28;20017;-81
2023/05/17 11:07:20;;;;;;;5.93;3.15;;;;;;;8.96;84.84;98679.91;5056079;28;20037;-80
2023/05/17 11:10:04;;;;;;;7.68;3.63;;;;;;;8.94;84.47;98690.31;5055740;28;20028;-81
2023/05/17 11:12:45;;;;;;;5.57;3.47;;;;;;;8.89;84.95;98691.13;5055030;28;20396;-79
2023/05/17 11:15:11;;;;;;;7.22;3.75;;;;;;;8.89;84.73;98677.44;5055894;28;20166;-80
2023/05/17 11:17:52;;;;;;;7.88;4.20;;;;;;;8.87;84.30;98673.38;5056097;28;20129;-80
2023/05/17 11:20:24;;;;;;;7.72;3.88;;;;;;;8.88;84.29;98672.28;5056133;28;20021;-81
2023/05/17 11:22:58;;;;;;;6.07;3.47;;;;;;;8.89;84.72;98680.19;5053527;28;20477;-79
2023/05/17 11:25:26;;;;;;;8.52;4.20;;;;;;;8.90;84.97;98687.28;5055404;28;20021;-79
2023/05/17 11:27:52;;;;;;;6.60;3.70;;;;;;;8.94;84.56;98693.03;5055854;28;20504;-79
2023/05/17 11:30:20;;;;;;;5.63;3.88;;;;;;;8.95;84.85;98691.94;5055958;28;20025;-81
2023/05/17 11:32:49;;;;;;;7.75;4.30;;;;;;;9.00;84.91;98694.63;5051298;28;20401;-82
2023/05/17 11:35:17;;;;;;;5.53;3.40;;;;;;;9.08;84.63;98696.00;5037208;28;20075;-81
2023/05/17 11:37:43;;;;;;;5.68;3.88;;;;;;;9.12;84.27;98702.53;5055169;28;20032;-81
2023/05/17 11:40:11;;;;;;;7.30;4.75;;;;;;;9.17;85.08;98696.22;5054112;28;20120;-81